createdAt,value
2022-08-04T00:01:09.654Z,7.05
2022-08-04T00:03:45.797Z,7.22
2022-08-04T00:06:26.191Z,7.15
2022-08-04T00:08:59.268Z,7.40
2022-08-04T00:11:31.486Z,7.18
2022-08-04T00:14:04.760Z,5.90
2022-08-04T00:16:38.063Z,6.82
2022-08-04T00:19:13.105Z,6.80
2022-08-04T00:21:47.398Z,6.28
2022-08-04T00:24:17.266Z,7.22
2022-08-04T00:26:46.675Z,6.90
2022-08-04T00:29:16.823Z,6.60
2022-08-04T00:31:57.001Z,7.57
2022-08-04T00:34:28.050Z,7.35
2022-08-04T00:36:58.605Z,7.45
2022-08-04T00:39:28.011Z,6.95
2022-08-04T00:42:19.122Z,6.85
2022-08-04T00:45:13.188Z,7.22
2022-08-04T00:47:59.193Z,6.80
2022-08-04T00:50:42.242Z,7.57
2022-08-04T00:53:17.876Z,7.43
2022-08-04T00:56:22.110Z,7.30
2022-08-04T00:59:04.816Z,6.70
2022-08-04T01:02:02.081Z,7.30
2022-08-04T01:04:47.036Z,7.22
2022-08-04T01:07:31.588Z,7.65
2022-08-04T01:10:07.824Z,7.15
2022-08-04T01:13:00.093Z,7.88
2022-08-04T01:15:59.357Z,7.32
2022-08-04T01:18:35.888Z,7.40
2022-08-04T01:21:41.167Z,7.35
2022-08-04T01:24:27.357Z,7.10
2022-08-04T01:27:04.052Z,7.17
2022-08-04T01:32:25.750Z,7.35
2022-08-04T01:35:02.423Z,8.52
2022-08-04T01:37:50.644Z,6.57
2022-08-04T01:40:20.424Z,8.27
2022-08-04T01:42:53.830Z,7.45
2022-08-04T01:45:26.464Z,7.85
2022-08-04T01:47:58.820Z,7.40
2022-08-04T01:50:28.487Z,7.90
2022-08-04T01:52:57.644Z,8.23
2022-08-04T01:55:55.262Z,6.95
2022-08-04T01:58:20.995Z,7.57
2022-08-04T02:00:58.405Z,7.93
2022-08-04T02:04:20.113Z,7.40
2022-08-04T02:06:27.926Z,7.25
2022-08-04T02:09:06.563Z,8.10
2022-08-04T02:11:35.630Z,7.72
2022-08-04T02:14:36.408Z,8.13
2022-08-04T02:17:12.264Z,8.75
2022-08-04T02:19:56.582Z,7.07
2022-08-04T02:22:28.356Z,7.28
2022-08-04T02:25:02.172Z,7.65
2022-08-04T02:28:00.577Z,7.20
2022-08-04T02:30:41.719Z,7.15
2022-08-04T02:33:18.390Z,7.78
2022-08-04T02:38:32.667Z,8.18
2022-08-04T02:41:03.086Z,8.43
2022-08-04T02:43:51.981Z,7.43
2022-08-04T02:46:23.125Z,7.90
2022-08-04T02:48:54.759Z,8.27
2022-08-04T02:51:30.023Z,8.10
2022-08-04T02:54:00.084Z,8.05
2022-08-04T02:56:31.493Z,8.48
2022-08-04T02:59:03.039Z,8.27
2022-08-04T03:01:32.126Z,8.50
2022-08-04T03:04:24.721Z,8.25
2022-08-04T03:07:25.685Z,8.75
2022-08-04T03:10:31.424Z,8.43
2022-08-04T03:13:29.117Z,8.43
2022-08-04T03:19:06.831Z,7.60
2022-08-04T03:22:01.899Z,8.00
2022-08-04T03:25:21.095Z,9.25
2022-08-04T03:28:19.536Z,8.90
2022-08-04T03:31:07.643Z,9.88
2022-08-04T03:33:53.143Z,9.55
2022-08-04T03:36:54.514Z,9.38
2022-08-04T03:40:16.422Z,9.32
2022-08-04T03:43:07.005Z,10.65
2022-08-04T03:46:25.684Z,9.93
2022-08-04T03:49:34.044Z,11.20
2022-08-04T03:52:29.388Z,9.23
2022-08-04T03:55:39.143Z,9.40
2022-08-04T03:58:44.411Z,9.13
2022-08-04T04:02:01.325Z,8.48
2022-08-04T04:04:48.033Z,7.78
2022-08-04T04:07:39.817Z,8.57
2022-08-04T04:10:23.337Z,7.82
2022-08-04T04:13:29.712Z,8.63
2022-08-04T04:16:21.632Z,8.35
2022-08-04T04:19:23.909Z,8.60
2022-08-04T04:22:23.601Z,8.00
2022-08-04T04:25:12.684Z,9.35
2022-08-04T04:28:46.489Z,8.40
2022-08-04T04:30:58.737Z,9.30
2022-08-04T04:33:46.843Z,8.00
2022-08-04T04:36:26.489Z,9.35
2022-08-04T04:39:05.461Z,9.27
2022-08-04T04:41:57.025Z,8.95
2022-08-04T04:44:43.524Z,10.23
2022-08-04T04:47:43.371Z,9.85
2022-08-04T04:50:15.970Z,8.52
2022-08-04T04:52:50.946Z,9.80
2022-08-04T04:55:22.499Z,9.63
2022-08-04T04:57:55.349Z,8.68
2022-08-04T05:00:26.144Z,9.35
2022-08-04T05:03:27.687Z,8.68
2022-08-04T05:06:11.460Z,8.70
2022-08-04T05:09:19.327Z,7.78
2022-08-04T05:14:32.501Z,7.53
2022-08-04T05:15:30.489Z,5.95
2022-08-04T05:18:02.322Z,6.68
2022-08-04T05:20:36.833Z,5.93
2022-08-04T05:23:12.221Z,5.13
2022-08-04T05:25:58.633Z,5.82
2022-08-04T05:28:34.631Z,5.00
2022-08-04T05:31:20.236Z,5.22
2022-08-04T05:33:54.540Z,4.30
2022-08-04T05:36:40.507Z,4.55
2022-08-04T05:39:15.546Z,4.28
2022-08-04T05:41:48.077Z,4.20
2022-08-04T05:44:25.956Z,4.30
2022-08-04T05:46:57.847Z,4.53
2022-08-04T05:49:29.649Z,4.60
2022-08-04T05:52:02.095Z,5.22
2022-08-04T05:54:33.446Z,4.22
2022-08-04T05:57:04.702Z,4.32
2022-08-04T05:59:35.353Z,4.03
2022-08-04T06:02:06.046Z,4.53
2022-08-04T06:04:39.608Z,3.95
2022-08-04T06:07:09.253Z,3.60
2022-08-04T06:09:38.291Z,3.13
2022-08-04T06:12:10.384Z,4.18
2022-08-04T06:14:45.806Z,3.55
2022-08-04T06:18:33.434Z,3.47
2022-08-04T06:20:21.954Z,3.10
2022-08-04T06:22:55.736Z,3.30
2022-08-04T06:25:29.088Z,3.85
2022-08-04T06:27:58.829Z,3.80
2022-08-04T06:30:28.556Z,3.35
2022-08-04T06:33:03.814Z,2.83
2022-08-04T06:35:34.042Z,3.42
2022-08-04T06:38:04.126Z,3.08
2022-08-04T06:40:34.649Z,3.42
2022-08-04T06:43:06.180Z,2.72
2022-08-04T06:45:37.190Z,3.22
2022-08-04T06:48:08.580Z,2.85
2022-08-04T06:51:29.756Z,2.60
2022-08-04T06:53:27.533Z,3.42
2022-08-04T06:55:58.250Z,3.20
2022-08-04T06:58:28.224Z,3.20
2022-08-04T07:01:02.034Z,3.55
2022-08-04T07:03:33.562Z,3.70
2022-08-04T07:06:05.847Z,3.03
2022-08-04T07:08:42.937Z,2.80
2022-08-04T07:11:11.896Z,3.00
2022-08-04T07:13:45.214Z,3.38
2022-08-04T07:16:16.109Z,3.55
2022-08-04T07:18:46.159Z,4.10
2022-08-04T07:21:22.153Z,3.80
2022-08-04T07:23:51.235Z,2.92
2022-08-04T07:26:20.067Z,2.63
2022-08-04T07:28:48.767Z,3.17
2022-08-04T07:31:33.511Z,2.90
2022-08-04T07:34:17.224Z,3.00
2022-08-04T07:36:55.039Z,2.90
2022-08-04T07:39:28.970Z,2.42
2022-08-04T07:41:59.506Z,2.42
2022-08-04T07:44:32.089Z,2.67
2022-08-04T07:47:01.478Z,2.30
2022-08-04T07:49:54.669Z,2.70
2022-08-04T07:52:20.680Z,3.00
2022-08-04T07:54:50.757Z,2.90
2022-08-04T07:57:40.769Z,2.47
2022-08-04T08:00:10.896Z,2.60
2022-08-04T08:02:43.395Z,2.70
2022-08-04T08:05:16.977Z,2.47
2022-08-04T08:07:50.514Z,3.05
2022-08-04T08:10:22.818Z,2.05
2022-08-04T08:12:52.542Z,2.60
2022-08-04T08:15:21.846Z,2.78
2022-08-04T08:17:59.890Z,3.25
2022-08-04T08:20:34.207Z,2.40
2022-08-04T08:23:03.982Z,2.40
2022-08-04T08:25:33.880Z,3.10
2022-08-04T08:28:04.941Z,3.15
2022-08-04T08:30:34.362Z,2.88
2022-08-04T08:33:06.265Z,3.33
2022-08-04T08:35:54.066Z,2.97
2022-08-04T08:38:40.228Z,3.80
2022-08-04T08:41:37.622Z,3.10
2022-08-04T08:47:21.293Z,2.92
2022-08-04T08:50:25.601Z,2.72
2022-08-04T08:53:11.277Z,2.97
2022-08-04T08:55:50.788Z,2.60
2022-08-04T08:58:41.059Z,2.90
2022-08-04T09:01:18.464Z,2.70
2022-08-04T09:04:34.142Z,3.45
2022-08-04T09:07:27.442Z,3.50
2022-08-04T09:10:07.480Z,3.65
2022-08-04T09:12:42.784Z,2.72
2022-08-04T09:15:16.393Z,3.40
2022-08-04T09:17:52.015Z,3.90
2022-08-04T09:20:30.609Z,4.03
2022-08-04T09:23:10.241Z,3.92
2022-08-04T09:25:48.200Z,2.33
2022-08-04T09:28:50.749Z,3.67
2022-08-04T09:31:16.824Z,3.45
2022-08-04T09:33:52.294Z,3.60
2022-08-04T09:36:29.932Z,3.22
2022-08-04T09:39:09.755Z,4.28
2022-08-04T09:41:52.600Z,4.40
2022-08-04T09:44:50.974Z,4.38
2022-08-04T09:47:26.302Z,3.33
2022-08-04T09:50:23.688Z,3.90
2022-08-04T09:53:00.845Z,3.50
2022-08-04T09:55:53.890Z,3.40
2022-08-04T09:58:37.833Z,4.15
2022-08-04T10:01:10.386Z,3.00
2022-08-04T10:03:43.236Z,4.43
2022-08-04T10:06:35.529Z,4.40
2022-08-04T10:09:22.531Z,4.35
2022-08-04T10:12:02.227Z,4.95
2022-08-04T10:14:40.269Z,4.65
2022-08-04T10:17:24.594Z,3.40
2022-08-04T10:20:04.585Z,3.25
2022-08-04T10:22:55.475Z,3.22
2022-08-04T10:26:07.242Z,4.25
2022-08-04T10:28:31.872Z,4.70
2022-08-04T10:31:08.337Z,4.50
2022-08-04T10:33:44.396Z,5.03
2022-08-04T10:36:18.706Z,4.45
2022-08-04T10:38:53.904Z,5.10
2022-08-04T10:41:48.890Z,4.40
2022-08-04T10:44:26.584Z,4.53
2022-08-04T10:47:02.140Z,4.72
2022-08-04T10:49:36.883Z,4.03
2022-08-04T10:52:11.450Z,4.50
2022-08-04T10:54:49.151Z,5.00
2022-08-04T10:57:24.975Z,5.13
2022-08-04T11:00:03.316Z,5.05
2022-08-04T11:02:42.908Z,4.68
2022-08-04T11:05:25.775Z,3.30
2022-08-04T11:07:58.622Z,3.72
2022-08-04T11:10:32.663Z,5.15
2022-08-04T11:13:22.014Z,5.00
2022-08-04T11:18:42.439Z,4.35
2022-08-04T11:21:16.801Z,4.43
2022-08-04T11:23:54.723Z,5.13
2022-08-04T11:26:30.831Z,4.70
2022-08-04T11:29:07.129Z,4.68
2022-08-04T11:31:48.441Z,4.47
2022-08-04T11:34:23.415Z,5.45
2022-08-04T11:37:01.624Z,5.00
2022-08-04T11:39:35.083Z,5.07
2022-08-04T11:42:11.826Z,4.85
2022-08-04T11:44:45.391Z,5.32
2022-08-04T11:47:23.475Z,6.72
2022-08-04T11:49:59.881Z,6.70
2022-08-04T11:55:00.891Z,6.68
2022-08-04T11:57:36.048Z,6.65
2022-08-04T12:00:10.466Z,6.63
2022-08-04T12:03:13.451Z,7.15
2022-08-04T12:05:53.896Z,6.75
2022-08-04T12:08:34.333Z,7.50
2022-08-04T12:11:15.034Z,6.93
2022-08-04T12:13:51.689Z,6.75
2022-08-04T12:16:30.711Z,8.07
2022-08-04T12:19:01.172Z,7.32
2022-08-04T12:21:43.494Z,6.82
2022-08-04T12:24:21.600Z,7.65
2022-08-04T12:26:54.297Z,6.30
2022-08-04T12:29:25.649Z,7.25
2022-08-04T12:31:58.245Z,7.60
2022-08-04T12:34:40.523Z,7.70
2022-08-04T12:37:20.533Z,7.90
2022-08-04T12:40:29.369Z,7.65
2022-08-04T12:42:56.151Z,7.45
2022-08-04T12:45:29.798Z,7.30
2022-08-04T12:48:00.219Z,7.75
2022-08-04T12:50:29.437Z,7.47
2022-08-04T12:53:02.679Z,7.47
2022-08-04T12:55:35.192Z,6.72
2022-08-04T12:58:13.040Z,7.82
2022-08-04T13:00:42.434Z,7.65
2022-08-04T13:03:13.532Z,6.50
2022-08-04T13:05:43.554Z,6.43
2022-08-04T13:08:15.544Z,7.03
2022-08-04T13:10:47.170Z,6.63
2022-08-04T13:13:19.946Z,7.07
2022-08-04T13:16:00.400Z,6.70
2022-08-04T13:18:32.373Z,6.32
2022-08-04T13:21:23.012Z,6.75
2022-08-04T13:24:21.973Z,6.10
2022-08-04T13:27:05.163Z,6.63
2022-08-04T13:29:59.660Z,6.38
2022-08-04T13:32:27.755Z,6.60
2022-08-04T13:34:58.724Z,6.93
2022-08-04T13:37:33.299Z,7.13
2022-08-04T13:40:05.444Z,7.22
2022-08-04T13:42:36.179Z,6.82
2022-08-04T13:45:07.491Z,7.38
2022-08-04T13:47:40.578Z,7.63
2022-08-04T13:50:23.719Z,6.45
2022-08-04T13:52:54.329Z,7.00
2022-08-04T13:55:27.289Z,7.22
2022-08-04T13:58:00.708Z,6.32
2022-08-04T14:00:46.633Z,6.50
2022-08-04T14:03:24.774Z,5.77
2022-08-04T14:06:15.981Z,6.88
2022-08-04T14:08:52.900Z,6.60
2022-08-04T14:12:06.143Z,6.63
2022-08-04T14:14:24.012Z,7.53
2022-08-04T14:17:02.247Z,8.20
2022-08-04T14:19:48.789Z,7.55
2022-08-04T14:22:31.385Z,8.52
2022-08-04T14:25:00.751Z,8.57
2022-08-04T14:27:32.105Z,8.13
2022-08-04T14:30:00.713Z,9.20
2022-08-04T14:32:29.382Z,8.82
2022-08-04T14:34:58.042Z,9.10
2022-08-04T14:37:48.279Z,8.70
2022-08-04T14:40:30.748Z,9.63
2022-08-04T14:43:05.143Z,9.70
2022-08-04T14:48:09.167Z,11.50
2022-08-04T14:50:40.312Z,9.18
2022-08-04T14:53:11.015Z,10.20
2022-08-04T14:55:40.791Z,8.57
2022-08-04T14:58:35.158Z,8.45
2022-08-04T15:01:10.102Z,9.40
2022-08-04T15:03:50.341Z,8.65
2022-08-04T15:06:24.010Z,9.23
2022-08-04T15:08:53.701Z,9.68
2022-08-04T15:11:24.254Z,10.85
2022-08-04T15:13:56.185Z,11.57
2022-08-04T15:16:26.127Z,10.43
2022-08-04T15:18:56.907Z,9.50
2022-08-04T15:21:29.032Z,9.27
2022-08-04T15:23:59.188Z,9.90
2022-08-04T15:26:35.116Z,9.40
2022-08-04T15:29:16.486Z,9.93
2022-08-04T15:32:05.337Z,9.75
2022-08-04T15:34:49.209Z,9.18
2022-08-04T15:37:20.614Z,9.38
2022-08-04T15:39:54.343Z,9.57
2022-08-04T15:42:31.866Z,9.80
2022-08-04T15:46:37.057Z,10.10
2022-08-04T15:48:30.869Z,9.90
2022-08-04T15:51:15.502Z,9.38
2022-08-04T15:54:30.807Z,14.95
2022-08-04T15:57:03.541Z,10.02
2022-08-04T15:59:58.527Z,9.85
2022-08-04T16:02:44.426Z,9.23
2022-08-04T16:05:36.977Z,9.97
2022-08-04T16:08:16.617Z,9.88
2022-08-04T16:10:50.645Z,10.25
2022-08-04T16:13:22.327Z,9.30
2022-08-04T16:15:53.297Z,8.75
2022-08-04T16:18:39.528Z,9.45
2022-08-04T16:21:19.047Z,8.85
2022-08-04T16:24:08.615Z,9.50
2022-08-04T16:26:46.164Z,8.70
2022-08-04T16:29:35.354Z,9.50
2022-08-04T16:32:11.984Z,9.38
2022-08-04T16:34:49.749Z,8.63
2022-08-04T16:37:25.882Z,8.48
2022-08-04T16:40:35.393Z,8.77
2022-08-04T16:43:07.923Z,8.80
2022-08-04T16:45:48.504Z,10.63
2022-08-04T16:48:18.403Z,11.73
2022-08-04T16:51:05.890Z,9.70
2022-08-04T16:53:57.899Z,9.52
2022-08-04T16:56:33.248Z,8.93
2022-08-04T16:59:09.520Z,9.35
2022-08-04T17:01:38.833Z,9.40
2022-08-04T17:04:07.989Z,9.23
2022-08-04T17:06:43.008Z,9.65
2022-08-04T17:09:14.476Z,11.10
2022-08-04T17:11:44.464Z,12.90
2022-08-04T17:14:13.516Z,11.32
2022-08-04T17:16:43.775Z,9.35
2022-08-04T17:19:23.633Z,10.15
2022-08-04T17:22:04.997Z,10.55
2022-08-04T17:24:35.813Z,10.20
2022-08-04T17:28:09.036Z,9.63
2022-08-04T17:29:53.241Z,11.18
2022-08-04T17:32:23.498Z,13.63
2022-08-04T17:34:55.017Z,18.67
2022-08-04T17:37:52.904Z,16.85
2022-08-04T17:40:18.281Z,15.43
2022-08-04T17:44:03.084Z,13.27
2022-08-04T17:46:28.178Z,12.20
2022-08-04T17:48:59.608Z,12.00
2022-08-04T17:52:05.606Z,11.50
2022-08-04T17:54:37.336Z,11.05
2022-08-04T17:57:21.084Z,12.20
2022-08-04T17:59:57.438Z,12.98
2022-08-04T18:02:32.645Z,12.27
2022-08-04T18:05:07.581Z,12.65
2022-08-04T18:08:35.247Z,11.65
2022-08-04T18:10:54.615Z,12.50
2022-08-04T18:13:27.047Z,11.80
2022-08-04T18:16:03.193Z,12.95
2022-08-04T18:18:40.623Z,12.93
2022-08-04T18:21:17.652Z,12.63
2022-08-04T18:23:51.041Z,12.38
2022-08-04T18:29:31.126Z,13.50
2022-08-04T18:31:58.480Z,16.38
2022-08-04T18:34:26.989Z,18.95
2022-08-04T18:36:59.310Z,20.30
2022-08-04T18:40:10.637Z,19.00
2022-08-04T18:42:31.703Z,17.58
2022-08-04T18:45:07.291Z,12.10
2022-08-04T18:47:54.386Z,11.73
2022-08-04T18:51:01.239Z,12.93
2022-08-04T18:53:13.626Z,12.98
2022-08-04T18:55:56.959Z,14.38
2022-08-04T18:58:28.195Z,13.13
2022-08-04T19:01:00.596Z,12.48
2022-08-04T19:03:30.575Z,12.75
2022-08-04T19:06:00.067Z,13.52
2022-08-04T19:08:33.413Z,12.90
2022-08-04T19:11:37.683Z,13.25
2022-08-04T19:13:58.139Z,12.95
2022-08-04T19:16:28.538Z,12.18
2022-08-04T19:18:57.403Z,13.82
2022-08-04T19:22:02.031Z,14.52
2022-08-04T19:24:31.614Z,12.82
2022-08-04T19:27:07.368Z,11.57
2022-08-04T19:29:40.681Z,11.93
2022-08-04T19:32:14.900Z,12.85
2022-08-04T19:34:47.097Z,14.80
2022-08-04T19:40:07.279Z,16.10
2022-08-04T19:42:37.972Z,15.00
2022-08-04T19:45:08.739Z,16.35
2022-08-04T19:48:16.234Z,14.77
2022-08-04T19:50:26.251Z,28.63
2022-08-04T19:52:55.064Z,20.38
2022-08-04T19:55:36.709Z,13.50
2022-08-04T19:58:07.397Z,13.65
2022-08-04T20:00:40.745Z,15.93
2022-08-04T20:03:20.299Z,16.80
2022-08-04T20:08:38.800Z,16.73
2022-08-04T20:11:18.891Z,15.25
2022-08-04T20:16:37.989Z,14.55
2022-08-04T20:19:10.612Z,13.90
2022-08-04T20:21:55.506Z,13.68
2022-08-04T20:24:38.645Z,12.23
2022-08-04T20:29:49.154Z,10.68
2022-08-04T20:32:22.481Z,11.13
2022-08-04T20:34:52.181Z,14.88
2022-08-04T20:37:23.271Z,15.52
2022-08-04T20:39:55.615Z,14.30
2022-08-04T20:42:26.977Z,14.02
2022-08-04T20:44:56.924Z,13.32
2022-08-04T20:47:27.083Z,13.52
2022-08-04T20:50:04.897Z,11.27
2022-08-04T20:52:33.615Z,12.13
2022-08-04T20:55:03.078Z,12.18
2022-08-04T20:57:49.440Z,10.68
2022-08-04T21:00:30.050Z,11.38
2022-08-04T21:03:00.771Z,11.70
2022-08-04T21:05:31.500Z,12.23
2022-08-04T21:10:49.916Z,13.63
2022-08-04T21:13:18.432Z,12.00
2022-08-04T21:15:58.648Z,13.15
2022-08-04T21:18:29.621Z,12.80
2022-08-04T21:20:58.267Z,12.18
2022-08-04T21:23:26.832Z,12.85
2022-08-04T21:25:58.248Z,16.67
2022-08-04T21:28:26.732Z,13.50
2022-08-04T21:30:55.973Z,12.35
2022-08-04T21:33:49.012Z,12.40
2022-08-04T21:36:19.935Z,12.68
2022-08-04T21:38:51.420Z,12.15
2022-08-04T21:41:25.039Z,12.32
2022-08-04T21:43:56.484Z,13.35
2022-08-04T21:46:30.305Z,12.75
2022-08-04T21:49:00.130Z,14.30
2022-08-04T21:51:57.895Z,14.35
2022-08-04T21:54:22.382Z,15.68
2022-08-04T21:56:52.713Z,14.93
2022-08-04T21:59:23.663Z,14.05
2022-08-04T22:02:01.723Z,14.57
2022-08-04T22:04:31.122Z,14.45
2022-08-04T22:07:03.284Z,15.18
2022-08-04T22:09:38.924Z,15.13
2022-08-04T22:12:12.003Z,15.70
2022-08-04T22:14:41.856Z,16.15
2022-08-04T22:17:18.948Z,14.70
2022-08-04T22:19:55.852Z,14.75
2022-08-04T22:22:29.697Z,15.77
2022-08-04T22:25:06.245Z,15.05
2022-08-04T22:28:00.732Z,15.45
2022-08-04T22:30:36.379Z,15.10
2022-08-04T22:33:08.146Z,14.25
2022-08-04T22:35:49.009Z,14.75
2022-08-04T22:38:24.395Z,13.55
2022-08-04T22:41:07.738Z,13.57
2022-08-04T22:43:37.583Z,13.75
2022-08-04T22:46:08.193Z,13.07
2022-08-04T22:48:39.732Z,12.50
2022-08-04T22:51:12.891Z,12.35
2022-08-04T22:53:49.159Z,12.88
2022-08-04T22:56:21.549Z,11.60
2022-08-04T22:59:06.756Z,12.20
2022-08-04T23:01:59.985Z,12.43
2022-08-04T23:04:27.468Z,11.80
2022-08-04T23:06:55.901Z,11.60
2022-08-04T23:09:49.425Z,11.50
2022-08-04T23:12:24.308Z,12.00
2022-08-04T23:14:56.098Z,10.90
2022-08-04T23:17:25.078Z,11.77
2022-08-04T23:19:57.593Z,11.57
2022-08-04T23:22:37.121Z,11.80
2022-08-04T23:25:16.318Z,11.55
2022-08-04T23:27:50.500Z,12.27
2022-08-04T23:30:21.908Z,11.68
2022-08-04T23:32:58.640Z,12.27
2022-08-04T23:35:27.161Z,12.25
2022-08-04T23:37:57.919Z,12.45
2022-08-04T23:40:34.210Z,12.10
2022-08-04T23:43:17.558Z,12.85
2022-08-04T23:46:04.228Z,12.63
2022-08-04T23:48:36.424Z,12.00
2022-08-04T23:51:13.754Z,12.13
2022-08-04T23:54:03.244Z,11.25
2022-08-04T23:56:34.623Z,12.32
2022-08-04T23:59:03.913Z,12.88
